createdAt,value
2023-01-26T00:01:17.079Z,52.65
2023-01-26T00:03:44.860Z,51.60
2023-01-26T00:06:13.863Z,51.33
2023-01-26T00:08:44.666Z,52.17
2023-01-26T00:11:14.075Z,53.63
2023-01-26T00:13:42.093Z,55.08
2023-01-26T00:16:11.531Z,55.70
2023-01-26T00:18:39.748Z,54.70
2023-01-26T00:21:08.668Z,52.10
2023-01-26T00:23:37.125Z,52.33
2023-01-26T00:26:08.912Z,49.58
2023-01-26T00:28:36.665Z,52.85
2023-01-26T00:31:04.744Z,49.80
2023-01-26T00:33:32.599Z,51.67
2023-01-26T00:36:00.652Z,51.80
2023-01-26T00:38:28.480Z,53.75
2023-01-26T00:40:56.146Z,51.00
2023-01-26T00:43:25.293Z,51.17
2023-01-26T00:45:53.028Z,50.13
2023-01-26T00:48:22.533Z,50.50
2023-01-26T00:50:52.247Z,50.80
2023-01-26T00:53:20.048Z,50.45
2023-01-26T00:55:47.873Z,50.25
2023-01-26T00:58:15.739Z,50.33
2023-01-26T01:00:44.823Z,50.67
2023-01-26T01:03:12.470Z,50.23
2023-01-26T01:05:40.234Z,49.53
2023-01-26T01:08:07.948Z,48.75
2023-01-26T01:10:35.639Z,49.22
2023-01-26T01:13:03.327Z,49.25
2023-01-26T01:15:31.082Z,48.42
2023-01-26T01:18:00.206Z,46.85
2023-01-26T01:20:27.898Z,48.30
2023-01-26T01:22:55.582Z,48.45
2023-01-26T01:25:23.368Z,49.05
2023-01-26T01:27:51.093Z,48.87
2023-01-26T01:30:19.137Z,49.40
2023-01-26T01:32:49.653Z,46.60
2023-01-26T01:35:18.767Z,47.83
2023-01-26T01:37:46.759Z,47.67
2023-01-26T01:40:14.890Z,46.88
2023-01-26T01:42:48.248Z,46.22
2023-01-26T01:45:43.903Z,47.97
2023-01-26T01:48:18.737Z,48.50
2023-01-26T01:50:49.966Z,47.67
2023-01-26T01:53:24.531Z,45.72
2023-01-26T01:55:54.673Z,45.38
2023-01-26T01:58:22.761Z,45.60
2023-01-26T02:00:50.560Z,44.10
2023-01-26T02:03:21.188Z,43.15
2023-01-26T02:05:55.938Z,44.58
2023-01-26T02:08:27.004Z,43.60
2023-01-26T02:10:56.911Z,42.35
2023-01-26T02:13:25.784Z,42.47
2023-01-26T02:15:53.514Z,38.78
2023-01-26T02:18:21.463Z,40.97
2023-01-26T02:20:53.176Z,39.87
2023-01-26T02:23:30.847Z,41.55
2023-01-26T02:26:12.197Z,40.50
2023-01-26T02:28:40.628Z,40.55
2023-01-26T02:31:09.528Z,40.25
2023-01-26T02:33:37.327Z,40.38
2023-01-26T02:36:06.355Z,40.38
2023-01-26T02:38:41.008Z,41.28
2023-01-26T02:41:11.550Z,38.63
2023-01-26T02:43:38.499Z,39.58
2023-01-26T02:46:06.373Z,39.13
2023-01-26T02:48:52.115Z,38.88
2023-01-26T02:51:19.863Z,39.38
2023-01-26T02:53:47.607Z,39.73
2023-01-26T02:56:15.697Z,39.00
2023-01-26T02:58:43.348Z,38.80
2023-01-26T03:01:11.156Z,35.90
2023-01-26T03:03:45.600Z,36.97
2023-01-26T03:06:15.225Z,37.00
2023-01-26T03:08:42.950Z,37.05
2023-01-26T03:11:10.861Z,35.90
2023-01-26T03:13:39.973Z,35.80
2023-01-26T03:16:10.117Z,35.38
2023-01-26T03:18:56.778Z,35.50
2023-01-26T03:21:42.008Z,33.75
2023-01-26T03:24:30.396Z,33.05
2023-01-26T03:27:15.539Z,33.08
2023-01-26T03:29:44.931Z,32.88
2023-01-26T03:32:12.932Z,34.58
2023-01-26T03:34:40.605Z,32.90
2023-01-26T03:37:08.414Z,31.48
2023-01-26T03:39:54.013Z,32.97
2023-01-26T03:42:39.035Z,33.17
2023-01-26T03:45:26.500Z,33.20
2023-01-26T03:48:11.608Z,34.55
2023-01-26T03:50:56.764Z,34.05
2023-01-26T03:53:42.869Z,35.42
2023-01-26T03:56:18.322Z,34.72
2023-01-26T03:58:46.604Z,34.67
2023-01-26T04:01:19.799Z,33.00
2023-01-26T04:04:06.395Z,34.03
2023-01-26T04:06:52.637Z,35.37
2023-01-26T04:09:20.427Z,31.52
2023-01-26T04:11:48.573Z,31.63
2023-01-26T04:14:48.901Z,30.58
2023-01-26T04:17:37.300Z,29.53
2023-01-26T04:20:23.915Z,28.65
2023-01-26T04:22:51.582Z,25.48
2023-01-26T04:25:21.441Z,24.10
2023-01-26T04:27:49.448Z,22.67
2023-01-26T04:30:18.169Z,25.15
2023-01-26T04:32:47.310Z,23.88
2023-01-26T04:35:15.296Z,23.63
2023-01-26T04:37:42.981Z,23.15
2023-01-26T04:40:12.079Z,22.38
2023-01-26T04:42:40.229Z,22.92
2023-01-26T04:45:09.015Z,24.60
2023-01-26T04:47:36.727Z,24.00
2023-01-26T04:50:06.661Z,23.67
2023-01-26T04:52:34.489Z,23.73
2023-01-26T04:55:02.177Z,22.52
2023-01-26T04:57:29.834Z,23.35
2023-01-26T04:59:57.484Z,23.13
2023-01-26T05:02:25.212Z,22.93
2023-01-26T05:04:52.965Z,23.23
2023-01-26T05:07:22.089Z,23.98
2023-01-26T05:09:49.819Z,22.48
2023-01-26T05:12:35.737Z,22.15
2023-01-26T05:15:03.483Z,21.02
2023-01-26T05:17:31.205Z,21.90
2023-01-26T05:19:58.857Z,22.17
2023-01-26T05:22:27.954Z,20.27
2023-01-26T05:24:55.653Z,20.20
2023-01-26T05:27:23.415Z,19.83
2023-01-26T05:29:52.378Z,19.38
2023-01-26T05:32:20.319Z,20.90
2023-01-26T05:34:48.035Z,18.55
2023-01-26T05:37:15.790Z,19.00
2023-01-26T05:39:44.929Z,18.40
2023-01-26T05:42:13.275Z,18.30
2023-01-26T05:44:41.082Z,16.70
2023-01-26T05:47:09.152Z,16.75
2023-01-26T05:49:38.693Z,15.70
2023-01-26T05:52:09.527Z,15.73
2023-01-26T05:54:37.433Z,15.85
2023-01-26T05:57:06.682Z,16.30
2023-01-26T05:59:34.322Z,15.52
2023-01-26T06:02:02.471Z,15.00
2023-01-26T06:04:30.448Z,14.27
2023-01-26T06:06:59.795Z,14.07
2023-01-26T06:09:27.729Z,14.35
2023-01-26T06:11:55.589Z,14.30
2023-01-26T06:14:24.783Z,14.80
2023-01-26T06:16:54.411Z,13.32
2023-01-26T06:19:22.162Z,13.80
2023-01-26T06:21:50.045Z,13.05
2023-01-26T06:24:17.839Z,13.90
2023-01-26T06:26:45.604Z,13.48
2023-01-26T06:29:13.396Z,12.13
2023-01-26T06:31:42.646Z,11.50
2023-01-26T06:34:11.075Z,11.13
2023-01-26T06:36:38.771Z,11.50
2023-01-26T06:39:06.673Z,11.95
2023-01-26T06:41:34.419Z,11.95
2023-01-26T06:44:02.100Z,11.77
2023-01-26T06:46:29.736Z,11.85
2023-01-26T06:48:58.857Z,12.88
2023-01-26T06:51:48.241Z,11.40
2023-01-26T06:54:16.435Z,10.95
2023-01-26T06:56:44.106Z,11.77
2023-01-26T06:59:11.805Z,10.93
2023-01-26T07:01:42.160Z,12.35
2023-01-26T07:04:11.451Z,10.75
2023-01-26T07:06:39.182Z,10.60
2023-01-26T07:09:07.089Z,11.05
2023-01-26T07:11:34.758Z,11.60
2023-01-26T07:14:02.497Z,10.50
2023-01-26T07:16:32.674Z,11.57
2023-01-26T07:19:01.320Z,11.57
2023-01-26T07:21:30.456Z,10.97
2023-01-26T07:23:58.496Z,11.00
2023-01-26T07:26:26.187Z,11.27
2023-01-26T07:28:53.873Z,10.10
2023-01-26T07:31:21.688Z,10.85
2023-01-26T07:33:49.419Z,11.80
2023-01-26T07:36:17.190Z,10.88
2023-01-26T07:38:47.110Z,12.63
2023-01-26T07:41:14.856Z,13.07
2023-01-26T07:43:43.084Z,12.93
2023-01-26T07:46:12.475Z,14.07
2023-01-26T07:48:40.846Z,13.65
2023-01-26T07:51:09.321Z,14.88
2023-01-26T07:53:39.425Z,13.18
2023-01-26T07:56:10.115Z,14.63
2023-01-26T07:58:37.825Z,14.35
2023-01-26T08:01:10.309Z,14.80
2023-01-26T08:03:38.268Z,14.32
2023-01-26T08:06:06.863Z,14.55
2023-01-26T08:08:35.534Z,15.20
2023-01-26T08:11:03.747Z,15.05
2023-01-26T08:13:35.745Z,15.88
2023-01-26T08:16:05.200Z,15.23
2023-01-26T08:18:33.135Z,16.77
2023-01-26T08:21:00.956Z,17.38
2023-01-26T08:23:28.934Z,16.10
2023-01-26T08:25:56.671Z,17.95
2023-01-26T08:28:24.357Z,16.80
2023-01-26T08:30:53.484Z,16.37
2023-01-26T08:33:21.242Z,16.67
2023-01-26T08:35:48.990Z,16.43
2023-01-26T08:38:16.691Z,19.42
2023-01-26T08:40:44.407Z,19.80
2023-01-26T08:43:12.053Z,18.77
2023-01-26T08:45:39.797Z,20.83
2023-01-26T08:48:09.235Z,18.00
2023-01-26T08:50:36.918Z,18.98
2023-01-26T08:53:04.632Z,19.33
2023-01-26T08:55:32.649Z,20.27
2023-01-26T08:58:00.832Z,19.95
2023-01-26T09:00:28.845Z,19.30
2023-01-26T09:03:00.129Z,19.20
2023-01-26T09:05:30.006Z,18.73
2023-01-26T09:07:57.730Z,22.52
2023-01-26T09:10:25.485Z,22.33
2023-01-26T09:12:53.214Z,21.57
2023-01-26T09:15:20.971Z,22.02
2023-01-26T09:17:49.472Z,19.63
2023-01-26T09:20:17.993Z,19.17
2023-01-26T09:22:47.614Z,23.20
2023-01-26T09:25:15.963Z,20.17
2023-01-26T09:27:44.663Z,21.52
2023-01-26T09:30:13.295Z,22.15
2023-01-26T09:32:40.993Z,22.33
2023-01-26T09:35:14.174Z,22.85
2023-01-26T09:37:42.496Z,21.20
2023-01-26T09:40:17.488Z,24.15
2023-01-26T09:42:58.695Z,20.63
2023-01-26T09:45:30.711Z,20.17
2023-01-26T09:48:16.783Z,23.20
2023-01-26T09:50:49.619Z,24.17
2023-01-26T09:53:20.977Z,26.93
2023-01-26T09:55:50.225Z,25.85
2023-01-26T09:58:21.819Z,25.02
2023-01-26T10:00:51.487Z,24.67
2023-01-26T10:04:07.278Z,25.83
2023-01-26T10:06:35.452Z,23.73
2023-01-26T10:09:07.761Z,22.83
2023-01-26T10:11:39.983Z,23.73
2023-01-26T10:14:13.865Z,25.20
2023-01-26T10:16:42.417Z,25.75
2023-01-26T10:19:15.142Z,27.67
2023-01-26T10:21:45.742Z,26.65
2023-01-26T10:24:15.370Z,28.35
2023-01-26T10:26:43.570Z,26.45
2023-01-26T10:29:15.547Z,29.17
2023-01-26T10:31:43.414Z,31.57
2023-01-26T10:34:15.484Z,31.38
2023-01-26T10:36:44.815Z,30.10
2023-01-26T10:39:15.543Z,33.05
2023-01-26T10:41:57.845Z,32.33
2023-01-26T10:44:33.464Z,30.30
2023-01-26T10:47:07.215Z,31.25
2023-01-26T10:49:37.677Z,40.78
2023-01-26T10:52:15.629Z,39.40
2023-01-26T10:54:44.615Z,36.17
2023-01-26T10:57:18.631Z,34.03
2023-01-26T10:59:51.615Z,31.53
2023-01-26T11:02:23.524Z,34.00
2023-01-26T11:05:17.449Z,29.93
2023-01-26T11:07:46.817Z,33.40
2023-01-26T11:10:20.618Z,33.45
2023-01-26T11:12:48.406Z,29.02
2023-01-26T11:15:21.462Z,27.85
2023-01-26T11:17:58.698Z,25.40
2023-01-26T11:20:45.767Z,26.98
2023-01-26T11:23:19.970Z,22.42
2023-01-26T11:26:17.476Z,23.52
2023-01-26T11:28:54.019Z,23.87
2023-01-26T11:31:32.824Z,20.40
2023-01-26T11:34:07.864Z,20.95
2023-01-26T11:36:43.267Z,18.33
2023-01-26T11:39:17.918Z,20.08
2023-01-26T11:41:55.777Z,19.08
2023-01-26T11:44:36.341Z,17.27
2023-01-26T11:47:14.944Z,17.33
2023-01-26T11:49:58.701Z,17.38
2023-01-26T11:52:34.219Z,15.88
2023-01-26T11:55:15.007Z,16.77
2023-01-26T11:57:48.709Z,16.38
2023-01-26T12:00:29.624Z,15.43
2023-01-26T12:03:01.987Z,15.10
2023-01-26T12:05:32.627Z,14.93
2023-01-26T12:08:05.356Z,15.40
2023-01-26T12:10:37.913Z,14.90
2023-01-26T12:13:09.342Z,14.80
2023-01-26T12:15:39.566Z,14.48
2023-01-26T12:18:15.374Z,14.20
2023-01-26T12:20:46.206Z,13.13
2023-01-26T12:23:26.519Z,12.82
2023-01-26T12:25:57.085Z,13.23
2023-01-26T12:28:29.176Z,12.93
2023-01-26T12:31:02.647Z,12.23
2023-01-26T12:33:30.485Z,11.87
2023-01-26T12:36:06.158Z,12.00
2023-01-26T12:38:42.390Z,12.18
2023-01-26T12:41:14.178Z,12.85
2023-01-26T12:43:54.843Z,11.77
2023-01-26T12:46:23.588Z,10.60
2023-01-26T12:48:56.034Z,12.38
2023-01-26T12:51:26.988Z,11.13
2023-01-26T12:53:59.697Z,11.97
2023-01-26T12:56:31.924Z,11.27
2023-01-26T12:59:01.354Z,11.00
2023-01-26T13:01:38.722Z,10.45
2023-01-26T13:04:09.975Z,10.25
2023-01-26T13:06:37.769Z,9.55
2023-01-26T13:09:20.776Z,9.30
2023-01-26T13:11:51.353Z,9.02
